Time;durP1;ratioP1;P1;durP2;ratioP2;P2;SDS_P1;SDS_P2;PMS_P1;PMS_P2;Temp;Humidity;BMP_temperature;BMP_pressure;BME280_temperature;BME280_humidity;BME280_pressure;Samples;Min_cycle;Max_cycle;Signal;HPM_P1;HPM_P2
2023/03/07 00:01:32;;;;;;;0.00;0.00;;;4.50;99.90;;;;;;4961733;28;20026;-77
2023/03/07 00:03:58;;;;;;;0.00;0.00;;;4.50;99.90;;;;;;4960836;28;20019;-77
2023/03/07 00:06:26;;;;;;;0.00;0.00;;;4.50;99.90;;;;;;4961544;28;20496;-77
2023/03/07 00:08:57;;;;;;;0.00;0.00;;;4.50;99.90;;;;;;4962966;28;20066;-77
2023/03/07 00:11:23;;;;;;;0.00;0.00;;;4.50;99.90;;;;;;4957142;28;20019;-77
2023/03/07 00:13:53;;;;;;;0.00;0.00;;;4.80;99.90;;;;;;4963183;28;20022;-76
2023/03/07 00:16:22;;;;;;;0.00;0.00;;;4.50;99.90;;;;;;4963215;28;20037;-77
2023/03/07 00:18:49;;;;;;;0.00;0.00;;;4.50;99.90;;;;;;4962957;28;21708;-77
2023/03/07 00:21:30;;;;;;;0.00;0.00;;;4.50;99.90;;;;;;4962073;28;20030;-77
2023/03/07 00:23:58;;;;;;;0.00;0.00;;;4.50;99.90;;;;;;4962625;28;20015;-77
2023/03/07 00:26:26;;;;;;;0.00;0.00;;;4.50;99.90;;;;;;4943627;28;20021;-77
2023/03/07 00:28:54;;;;;;;0.00;0.00;;;4.50;99.90;;;;;;4961395;28;20030;-77
2023/03/07 00:31:23;;;;;;;0.00;0.00;;;4.40;99.90;;;;;;4961163;28;20037;-77
2023/03/07 00:33:49;;;;;;;0.20;0.20;;;4.30;99.90;;;;;;4961497;28;20026;-77
2023/03/07 00:36:26;;;;;;;0.00;0.00;;;4.30;99.90;;;;;;4961057;28;20031;-77
2023/03/07 00:39:01;;;;;;;0.00;0.00;;;4.30;99.90;;;;;;4961451;28;20089;-78
2023/03/07 00:41:29;;;;;;;0.00;0.00;;;4.40;99.90;;;;;;4961757;28;20023;-77
2023/03/07 00:43:57;;;;;;;0.00;0.00;;;4.40;99.90;;;;;;4960617;28;20034;-77
2023/03/07 00:46:24;;;;;;;0.00;0.00;;;4.30;99.90;;;;;;4961393;28;20384;-77
2023/03/07 00:48:52;;;;;;;0.00;0.00;;;4.30;99.90;;;;;;4941102;28;20093;-77
2023/03/07 00:51:22;;;;;;;2.75;0.52;;;4.30;99.90;;;;;;4947627;28;20357;-77
2023/03/07 00:53:48;;;;;;;0.00;0.00;;;4.30;99.90;;;;;;4955414;28;20061;-77
2023/03/07 00:56:25;;;;;;;0.00;0.00;;;4.30;99.90;;;;;;4961114;28;20026;-77
2023/03/07 00:58:51;;;;;;;0.00;0.00;;;4.20;99.90;;;;;;4965054;28;20034;-77
2023/03/07 01:01:21;;;;;;;0.00;0.00;;;4.10;99.90;;;;;;4956516;28;20025;-77
2023/03/07 01:03:52;;;;;;;0.00;0.00;;;4.00;99.90;;;;;;4960119;28;20057;-77
2023/03/07 01:06:21;;;;;;;0.00;0.00;;;4.00;99.90;;;;;;4961084;28;20029;-77
2023/03/07 01:08:48;;;;;;;0.00;0.00;;;4.10;99.90;;;;;;4965863;28;20072;-77
2023/03/07 01:11:15;;;;;;;0.00;0.00;;;4.00;99.90;;;;;;4960374;28;20030;-78
2023/03/07 01:13:40;;;;;;;0.00;0.00;;;4.00;99.90;;;;;;4961772;28;20035;-78
2023/03/07 01:16:19;;;;;;;0.00;0.00;;;4.10;99.90;;;;;;4961990;28;20596;-77
2023/03/07 01:18:48;;;;;;;0.00;0.00;;;3.90;99.90;;;;;;4955918;28;20034;-77
2023/03/07 01:21:16;;;;;;;0.00;0.00;;;3.90;99.90;;;;;;4961665;28;20022;-77
2023/03/07 01:23:48;;;;;;;0.00;0.00;;;3.90;99.90;;;;;;4961196;28;20508;-78
2023/03/07 01:26:19;;;;;;;0.00;0.00;;;3.70;99.90;;;;;;4955769;28;20023;-78
2023/03/07 01:28:55;;;;;;;0.00;0.00;;;3.60;99.90;;;;;;4960631;28;20073;-77
2023/03/07 01:31:21;;;;;;;0.00;0.00;;;3.70;99.90;;;;;;4960157;28;20113;-78
2023/03/07 01:33:47;;;;;;;0.00;0.00;;;3.60;99.90;;;;;;4961765;28;20065;-77
2023/03/07 01:36:28;;;;;;;;;;;3.60;99.90;;;;;;4962409;28;20031;-77
2023/03/07 01:39:12;;;;;;;0.00;0.00;;;3.50;99.90;;;;;;4957029;28;19936;-77
2023/03/07 01:41:40;;;;;;;0.00;0.00;;;3.40;99.90;;;;;;4959783;28;20030;-77
2023/03/07 01:44:25;;;;;;;0.00;0.00;;;3.40;99.90;;;;;;4961211;28;20030;-77
2023/03/07 01:46:54;;;;;;;0.00;0.00;;;3.30;99.90;;;;;;4960626;28;20031;-77
2023/03/07 01:49:29;;;;;;;0.00;0.00;;;3.40;99.90;;;;;;4948791;28;20031;-77
2023/03/07 01:52:08;;;;;;;0.00;0.00;;;3.50;99.90;;;;;;4939480;28;20026;-77
2023/03/07 01:54:56;;;;;;;0.00;0.00;;;3.50;99.90;;;;;;4961089;28;20023;-77
2023/03/07 01:57:28;;;;;;;0.00;0.00;;;3.50;99.90;;;;;;4956509;28;20034;-77
2023/03/07 01:59:57;;;;;;;0.00;0.00;;;3.50;99.90;;;;;;4944198;28;20745;-77
2023/03/07 02:02:39;;;;;;;0.00;0.00;;;3.60;99.90;;;;;;4959704;28;20025;-77
2023/03/07 02:05:28;;;;;;;0.00;0.00;;;3.50;99.90;;;;;;4958578;28;20434;-77
2023/03/07 02:08:01;;;;;;;0.00;0.00;;;3.60;99.90;;;;;;4952769;28;20023;-77
2023/03/07 02:10:29;;;;;;;0.00;0.00;;;3.70;99.90;;;;;;4958857;28;20375;-77
2023/03/07 02:13:02;;;;;;;0.80;0.80;;;3.70;99.90;;;;;;4964980;28;20055;-77
2023/03/07 02:15:28;;;;;;;0.00;0.00;;;3.80;99.90;;;;;;4965219;28;20040;-77
2023/03/07 02:18:00;;;;;;;0.00;0.00;;;3.80;99.90;;;;;;4959938;28;20023;-77
2023/03/07 02:20:52;;;;;;;0.00;0.00;;;3.90;99.90;;;;;;4967673;28;20034;-77
2023/03/07 02:23:45;;;;;;;0.00;0.00;;;3.80;99.90;;;;;;4971566;28;20396;-77
2023/03/07 02:26:21;;;;;;;0.00;0.00;;;3.80;99.90;;;;;;4965308;28;20029;-77
2023/03/07 02:28:50;;;;;;;0.00;0.00;;;3.90;99.90;;;;;;4964990;28;20054;-77
2023/03/07 02:31:19;;;;;;;0.00;0.00;;;3.90;99.90;;;;;;4962846;28;20050;-77
2023/03/07 02:33:48;;;;;;;0.35;0.30;;;3.90;99.90;;;;;;4949472;28;20387;-78
2023/03/07 02:36:26;;;;;;;0.00;0.00;;;3.90;99.90;;;;;;4964121;28;20464;-77
2023/03/07 02:38:55;;;;;;;0.00;0.00;;;3.90;99.90;;;;;;4965026;28;20035;-77
2023/03/07 02:41:27;;;;;;;0.00;0.00;;;4.00;99.90;;;;;;4964182;28;20085;-78
2023/03/07 02:44:00;;;;;;;0.00;0.00;;;4.00;99.90;;;;;;4962801;28;20089;-77
2023/03/07 02:46:29;;;;;;;0.00;0.00;;;4.10;99.90;;;;;;4967847;28;20022;-76
2023/03/07 02:48:58;;;;;;;0.00;0.00;;;4.10;99.90;;;;;;4942750;28;20026;-77
2023/03/07 02:51:40;;;;;;;0.00;0.00;;;4.10;99.90;;;;;;4962809;28;20139;-77
2023/03/07 02:54:07;;;;;;;0.00;0.00;;;4.10;99.90;;;;;;4949463;28;20630;-77
2023/03/07 02:56:33;;;;;;;0.00;0.00;;;4.20;99.90;;;;;;4964383;28;20035;-77
2023/03/07 02:59:12;;;;;;;0.35;0.15;;;4.20;99.90;;;;;;4958583;28;20027;-77
2023/03/07 03:01:45;;;;;;;0.00;0.00;;;4.30;99.90;;;;;;4963793;28;20469;-77
2023/03/07 03:04:11;;;;;;;0.00;0.00;;;4.30;99.90;;;;;;4964179;28;20058;-77
2023/03/07 03:06:42;;;;;;;0.00;0.00;;;4.20;99.90;;;;;;4963463;28;20062;-77
2023/03/07 03:09:11;;;;;;;0.47;0.28;;;4.20;99.90;;;;;;4949185;28;20376;-77
2023/03/07 03:11:42;;;;;;;0.00;0.00;;;4.30;99.90;;;;;;4959120;28;20022;-77
2023/03/07 03:14:10;;;;;;;0.00;0.00;;;4.40;99.90;;;;;;4966669;28;20023;-77
2023/03/07 03:16:39;;;;;;;0.00;0.00;;;4.40;99.90;;;;;;4963318;28;20420;-77
2023/03/07 03:19:05;;;;;;;0.00;0.00;;;4.30;99.90;;;;;;4946677;28;20106;-77
2023/03/07 03:21:34;;;;;;;0.00;0.00;;;4.30;99.90;;;;;;4961596;28;20464;-77
2023/03/07 03:24:06;;;;;;;0.00;0.00;;;4.50;99.90;;;;;;4959253;28;20110;-77
2023/03/07 03:26:35;;;;;;;0.00;0.00;;;4.50;99.90;;;;;;4946431;28;20381;-77
2023/03/07 03:29:01;;;;;;;0.00;0.00;;;4.50;99.90;;;;;;4962037;28;20648;-77
2023/03/07 03:31:30;;;;;;;0.00;0.00;;;4.60;99.90;;;;;;4961219;28;20023;-78
2023/03/07 03:33:57;;;;;;;0.00;0.00;;;4.60;99.90;;;;;;4968500;28;20085;-77
2023/03/07 03:36:25;;;;;;;0.22;0.22;;;4.50;99.90;;;;;;4946306;28;20050;-77
2023/03/07 03:39:01;;;;;;;0.00;0.00;;;4.50;99.90;;;;;;4959112;28;20084;-77
2023/03/07 03:41:43;;;;;;;0.00;0.00;;;4.50;99.90;;;;;;4961949;28;20019;-77
2023/03/07 03:44:13;;;;;;;0.00;0.00;;;4.50;99.90;;;;;;4962875;28;20010;-77
2023/03/07 03:46:42;;;;;;;0.00;0.00;;;4.40;99.90;;;;;;4963688;28;20026;-78
2023/03/07 03:49:21;;;;;;;0.00;0.00;;;4.40;99.90;;;;;;4961918;28;20461;-77
2023/03/07 03:51:47;;;;;;;0.00;0.00;;;4.40;99.90;;;;;;4957751;28;20022;-77
2023/03/07 03:54:22;;;;;;;0.00;0.00;;;4.30;99.90;;;;;;4948104;28;20037;-77
2023/03/07 03:56:57;;;;;;;0.00;0.00;;;4.40;99.90;;;;;;4957489;28;20443;-77
2023/03/07 03:59:29;;;;;;;0.00;0.00;;;4.40;99.90;;;;;;4966436;28;20026;-77
2023/03/07 04:01:56;;;;;;;0.00;0.00;;;4.30;99.90;;;;;;4969550;28;20019;-77
2023/03/07 04:04:22;;;;;;;0.00;0.00;;;4.40;99.90;;;;;;4944724;28;20101;-78
2023/03/07 04:06:51;;;;;;;0.00;0.00;;;4.40;99.90;;;;;;4947565;28;20066;-79
2023/03/07 04:09:19;;;;;;;0.00;0.00;;;4.50;99.90;;;;;;4961575;28;20505;-77
2023/03/07 04:11:48;;;;;;;0.00;0.00;;;4.50;99.90;;;;;;4962359;28;20162;-78
2023/03/07 04:14:16;;;;;;;0.00;0.00;;;4.40;99.90;;;;;;4961373;28;20534;-77
2023/03/07 04:16:53;;;;;;;0.70;0.70;;;4.50;99.90;;;;;;4960284;28;20473;-77
2023/03/07 04:19:19;;;;;;;0.00;0.00;;;4.50;99.90;;;;;;4963211;28;20038;-77
2023/03/07 04:21:45;;;;;;;0.00;0.00;;;4.40;99.90;;;;;;4962392;28;20038;-77
2023/03/07 04:24:14;;;;;;;0.00;0.00;;;4.30;99.90;;;;;;4961910;28;20026;-77
2023/03/07 04:26:43;;;;;;;0.00;0.00;;;4.20;99.90;;;;;;4960834;28;20027;-77
2023/03/07 04:29:14;;;;;;;0.00;0.00;;;4.20;99.90;;;;;;4946223;28;20447;-77
2023/03/07 04:31:46;;;;;;;0.00;0.00;;;4.10;99.90;;;;;;4957681;28;20106;-77
2023/03/07 04:34:13;;;;;;;0.00;0.00;;;4.20;99.90;;;;;;4946109;28;20025;-77
2023/03/07 04:36:39;;;;;;;0.17;0.17;;;4.10;99.90;;;;;;4960835;28;20465;-77
2023/03/07 04:39:09;;;;;;;0.00;0.00;;;4.00;99.90;;;;;;4944853;28;20038;-77
2023/03/07 04:41:39;;;;;;;0.00;0.00;;;4.20;99.90;;;;;;4957813;28;20666;-77
2023/03/07 04:44:05;;;;;;;0.10;0.10;;;4.00;99.90;;;;;;4960983;28;20023;-77
2023/03/07 04:46:37;;;;;;;0.00;0.00;;;4.00;99.90;;;;;;4962771;28;20660;-76
2023/03/07 04:49:14;;;;;;;0.00;0.00;;;4.10;99.90;;;;;;4961652;28;20049;-77
2023/03/07 04:51:40;;;;;;;0.10;0.10;;;4.10;99.90;;;;;;4960104;28;20015;-79
2023/03/07 04:54:05;;;;;;;0.10;0.10;;;4.00;99.90;;;;;;4961703;28;20045;-77
2023/03/07 04:56:41;;;;;;;0.00;0.00;;;4.10;99.90;;;;;;4958088;28;20614;-77
2023/03/07 04:59:07;;;;;;;0.43;0.43;;;4.10;99.90;;;;;;4961712;28;20034;-77
2023/03/07 05:01:33;;;;;;;0.00;0.00;;;4.50;99.90;;;;;;4961463;28;20400;-77
2023/03/07 05:04:00;;;;;;;0.00;0.00;;;4.10;99.90;;;;;;4957627;28;20023;-77
2023/03/07 05:06:31;;;;;;;0.00;0.00;;;4.30;99.90;;;;;;4965118;28;20408;-77
2023/03/07 05:08:58;;;;;;;0.00;0.00;;;4.10;99.90;;;;;;4942453;28;20031;-77
2023/03/07 05:11:28;;;;;;;;;;;4.10;99.90;;;;;;4959851;28;20026;-77
2023/03/07 05:13:56;;;;;;;0.00;0.00;;;4.10;99.90;;;;;;4943465;28;19910;-77
2023/03/07 05:16:22;;;;;;;0.00;0.00;;;4.20;99.90;;;;;;4959521;28;20673;-77
2023/03/07 05:18:47;;;;;;;0.00;0.00;;;4.10;99.90;;;;;;4960471;28;20030;-77
2023/03/07 05:21:21;;;;;;;0.00;0.00;;;4.20;99.90;;;;;;4943632;28;20030;-77
2023/03/07 05:23:49;;;;;;;0.00;0.00;;;4.10;99.90;;;;;;4961675;28;20040;-78
2023/03/07 05:26:15;;;;;;;0.00;0.00;;;4.20;99.90;;;;;;4965457;28;20076;-78
2023/03/07 05:28:46;;;;;;;0.00;0.00;;;4.10;99.90;;;;;;4941008;28;20118;-77
2023/03/07 05:31:12;;;;;;;0.00;0.00;;;4.10;99.90;;;;;;4960137;28;20023;-77
2023/03/07 05:33:42;;;;;;;0.00;0.00;;;4.20;99.90;;;;;;4961842;28;20496;-77
2023/03/07 05:36:09;;;;;;;0.00;0.00;;;4.20;99.90;;;;;;4957145;28;20550;-76
2023/03/07 05:38:34;;;;;;;;;;;4.20;99.90;;;;;;4960968;28;20038;-77
2023/03/07 05:41:06;;;;;;;0.00;0.00;;;4.20;99.90;;;;;;4960084;28;19910;-76
2023/03/07 05:43:32;;;;;;;0.00;0.00;;;4.30;99.90;;;;;;4961227;28;20053;-78
2023/03/07 05:46:01;;;;;;;0.00;0.00;;;4.30;99.90;;;;;;4963997;28;20472;-77
2023/03/07 05:48:28;;;;;;;0.00;0.00;;;4.30;99.90;;;;;;4965324;28;20024;-77
2023/03/07 05:50:53;;;;;;;;;;;4.40;99.90;;;;;;4970255;28;20022;-77
2023/03/07 05:53:19;;;;;;;0.10;0.10;;;4.40;99.90;;;;;;4947318;28;19914;-77
2023/03/07 05:55:49;;;;;;;0.00;0.00;;;4.50;99.90;;;;;;4959691;28;20027;-77
2023/03/07 05:58:14;;;;;;;0.00;0.00;;;4.60;99.90;;;;;;4970760;28;20023;-77
2023/03/07 06:00:44;;;;;;;0.00;0.00;;;4.50;99.90;;;;;;4957422;28;20027;-77
2023/03/07 06:03:14;;;;;;;0.00;0.00;;;4.60;99.90;;;;;;4964701;28;20056;-77
2023/03/07 06:05:43;;;;;;;0.00;0.00;;;4.70;99.90;;;;;;4963543;28;20023;-77
2023/03/07 06:08:08;;;;;;;3.13;0.47;;;4.90;99.90;;;;;;4963247;28;20023;-76
2023/03/07 06:10:35;;;;;;;0.00;0.00;;;5.10;99.90;;;;;;4962982;28;20045;-76
2023/03/07 06:13:03;;;;;;;0.00;0.00;;;5.00;99.90;;;;;;5121504;23;20038;-86
2023/03/07 06:18:13;;;;;;;0.00;0.00;;;5.10;99.90;;;;;;5567135;23;20087;-82
2023/03/07 06:20:43;;;;;;;0.00;0.00;;;5.90;99.90;;;;;;4988487;28;20041;-77
2023/03/07 06:23:11;;;;;;;0.00;0.00;;;5.40;99.90;;;;;;4986661;28;20467;-76
2023/03/07 06:25:37;;;;;;;0.00;0.00;;;5.50;99.90;;;;;;4991382;28;20018;-76
2023/03/07 06:28:04;;;;;;;0.00;0.00;;;5.50;99.90;;;;;;4989787;28;20022;-76
2023/03/07 06:30:30;;;;;;;0.00;0.00;;;5.50;99.90;;;;;;4992844;28;20029;-75
2023/03/07 06:32:57;;;;;;;0.00;0.00;;;5.50;99.90;;;;;;4992603;28;20021;-75
2023/03/07 06:35:23;;;;;;;0.00;0.00;;;5.60;99.90;;;;;;4987658;28;20032;-74
2023/03/07 06:37:50;;;;;;;0.00;0.00;;;5.70;99.90;;;;;;5002980;28;20029;-75
2023/03/07 06:40:17;;;;;;;0.00;0.00;;;5.80;99.90;;;;;;4990836;28;20082;-75
2023/03/07 06:42:43;;;;;;;0.00;0.00;;;5.90;99.90;;;;;;5007417;28;20041;-75
2023/03/07 06:45:09;;;;;;;0.00;0.00;;;6.00;99.90;;;;;;4983031;28;20029;-75
2023/03/07 06:47:36;;;;;;;0.00;0.00;;;5.90;99.90;;;;;;4986928;28;20670;-75
2023/03/07 06:50:02;;;;;;;0.45;0.45;;;5.90;99.90;;;;;;4993851;28;20025;-75
2023/03/07 06:52:29;;;;;;;0.00;0.00;;;5.90;99.90;;;;;;5006345;28;20357;-75
2023/03/07 06:54:56;;;;;;;0.00;0.00;;;5.80;99.90;;;;;;4991073;28;20026;-75
2023/03/07 06:57:23;;;;;;;0.00;0.00;;;5.90;99.90;;;;;;5004072;28;20506;-76
2023/03/07 06:59:48;;;;;;;0.00;0.00;;;6.00;99.90;;;;;;4989253;28;20041;-75
2023/03/07 07:02:16;;;;;;;0.00;0.00;;;6.00;99.90;;;;;;5002908;28;20026;-76
2023/03/07 07:04:47;;;;;;;0.00;0.00;;;6.00;99.90;;;;;;5008094;28;20486;-75
2023/03/07 07:07:15;;;;;;;0.00;0.00;;;5.80;99.90;;;;;;4982606;28;20047;-76
2023/03/07 07:09:44;;;;;;;0.00;0.00;;;5.90;99.90;;;;;;5007281;28;20018;-75
2023/03/07 07:12:11;;;;;;;0.00;0.00;;;5.90;99.90;;;;;;4980890;28;20032;-75
2023/03/07 07:14:40;;;;;;;0.00;0.00;;;6.00;99.90;;;;;;4986289;28;20022;-75
2023/03/07 07:17:05;;;;;;;0.00;0.00;;;6.00;99.90;;;;;;5006460;28;20053;-75
2023/03/07 07:19:37;;;;;;;0.00;0.00;;;6.10;99.90;;;;;;4987041;28;20052;-75
2023/03/07 07:22:07;;;;;;;0.00;0.00;;;6.20;99.90;;;;;;4985926;28;20112;-75
2023/03/07 07:24:33;;;;;;;0.00;0.00;;;6.20;99.90;;;;;;4988076;28;20036;-75
2023/03/07 07:27:05;;;;;;;0.00;0.00;;;6.20;99.90;;;;;;5005369;28;20534;-75
2023/03/07 07:29:31;;;;;;;0.00;0.00;;;6.20;99.90;;;;;;4978707;28;20021;-75
2023/03/07 07:32:01;;;;;;;0.00;0.00;;;6.30;99.90;;;;;;4987652;28;20037;-76
2023/03/07 07:34:33;;;;;;;0.00;0.00;;;6.30;99.90;;;;;;4991646;28;20689;-76
2023/03/07 07:36:58;;;;;;;0.00;0.00;;;6.40;99.90;;;;;;4997841;28;20072;-76
2023/03/07 07:39:32;;;;;;;0.00;0.00;;;6.70;99.90;;;;;;4988534;28;20572;-75
2023/03/07 07:42:02;;;;;;;0.00;0.00;;;6.80;99.90;;;;;;4998344;28;20022;-75
2023/03/07 07:44:34;;;;;;;0.00;0.00;;;7.00;99.90;;;;;;4984777;28;20021;-75
2023/03/07 07:47:06;;;;;;;0.00;0.00;;;7.10;99.90;;;;;;4998736;28;20029;-75
2023/03/07 07:49:32;;;;;;;0.00;0.00;;;7.20;99.20;;;;;;4999535;28;20029;-75
2023/03/07 07:52:00;;;;;;;0.00;0.00;;;7.30;99.70;;;;;;4991605;28;20520;-75
2023/03/07 07:54:29;;;;;;;0.00;0.00;;;7.40;99.30;;;;;;4991931;28;20021;-75
2023/03/07 07:56:57;;;;;;;0.00;0.00;;;7.60;98.80;;;;;;5002180;28;20026;-76
2023/03/07 07:59:24;;;;;;;0.00;0.00;;;7.80;98.20;;;;;;5007684;28;20045;-75
2023/03/07 08:01:50;;;;;;;0.00;0.00;;;8.00;97.40;;;;;;5010465;28;20021;-76
2023/03/07 08:04:32;;;;;;;0.00;0.00;;;8.30;96.90;;;;;;4994686;28;20014;-75
2023/03/07 08:06:57;;;;;;;0.00;0.00;;;8.50;96.10;;;;;;5009363;28;20014;-75
2023/03/07 08:09:27;;;;;;;0.00;0.00;;;8.60;94.90;;;;;;4987450;28;20021;-75
2023/03/07 08:11:54;;;;;;;0.00;0.00;;;8.70;95.10;;;;;;4987568;28;20105;-75
2023/03/07 08:14:20;;;;;;;;;;;9.00;94.70;;;;;;4992801;28;20105;-76
2023/03/07 08:16:48;;;;;;;0.00;0.00;;;9.30;94.30;;;;;;4997656;28;19924;-75
2023/03/07 08:19:22;;;;;;;0.00;0.00;;;9.50;93.40;;;;;;5005481;28;20037;-75
2023/03/07 08:21:48;;;;;;;0.00;0.00;;;10.20;92.70;;;;;;4999905;28;20942;-76
2023/03/07 08:24:15;;;;;;;;;;;11.10;90.80;;;;;;4987736;28;20030;-76
2023/03/07 08:26:49;;;;;;;0.00;0.00;;;12.20;84.40;;;;;;4997113;28;20011;-76
2023/03/07 08:29:19;;;;;;;0.60;0.60;;;12.50;81.90;;;;;;4994070;28;20041;-76
2023/03/07 08:31:45;;;;;;;0.00;0.00;;;13.00;76.70;;;;;;5006714;28;20049;-76
2023/03/07 08:34:17;;;;;;;0.00;0.00;;;13.10;75.70;;;;;;5001500;28;20022;-76
2023/03/07 08:36:42;;;;;;;0.00;0.00;;;13.20;75.60;;;;;;4985937;28;20045;-76
2023/03/07 08:39:08;;;;;;;0.03;0.03;;;12.80;73.60;;;;;;5001819;28;20029;-76
2023/03/07 08:41:34;;;;;;;0.00;0.00;;;13.00;73.80;;;;;;4981444;28;20037;-76
2023/03/07 08:44:01;;;;;;;0.00;0.00;;;13.00;71.50;;;;;;4992158;28;20805;-76
2023/03/07 08:46:27;;;;;;;0.00;0.00;;;13.00;69.20;;;;;;5006778;28;20141;-76
2023/03/07 08:48:53;;;;;;;0.10;0.10;;;12.90;68.30;;;;;;4983281;28;20116;-76
2023/03/07 08:51:21;;;;;;;0.00;0.00;;;12.90;66.70;;;;;;4988682;28;20188;-76
2023/03/07 08:53:47;;;;;;;0.00;0.00;;;13.10;65.60;;;;;;4979831;28;20512;-76
2023/03/07 08:56:15;;;;;;;0.00;0.00;;;13.40;65.00;;;;;;4985997;28;20021;-75
2023/03/07 08:58:44;;;;;;;0.00;0.00;;;13.30;62.60;;;;;;5002882;28;20790;-75
2023/03/07 09:01:11;;;;;;;0.00;0.00;;;13.30;61.30;;;;;;5007277;28;20076;-76
2023/03/07 09:03:43;;;;;;;0.00;0.00;;;13.10;60.60;;;;;;5006188;28;20014;-76
2023/03/07 09:06:20;;;;;;;0.00;0.00;;;13.10;60.40;;;;;;4986287;28;20053;-76
2023/03/07 09:08:49;;;;;;;0.00;0.00;;;13.20;60.00;;;;;;4982868;28;20475;-76
2023/03/07 09:11:17;;;;;;;0.00;0.00;;;13.70;59.20;;;;;;5007320;28;20040;-71
2023/03/07 09:13:46;;;;;;;0.08;0.08;;;13.90;58.90;;;;;;5004690;28;20405;-75
2023/03/07 09:16:13;;;;;;;0.00;0.00;;;13.80;57.90;;;;;;5004854;28;20021;-75
2023/03/07 09:18:39;;;;;;;0.00;0.00;;;13.60;57.70;;;;;;5001210;28;20022;-74
2023/03/07 09:21:05;;;;;;;0.00;0.00;;;13.60;57.80;;;;;;4989637;28;20072;-74
2023/03/07 09:23:31;;;;;;;0.00;0.00;;;13.60;57.80;;;;;;4985987;28;20527;-74
2023/03/07 09:26:01;;;;;;;0.00;0.00;;;13.20;58.40;;;;;;4984537;28;20077;-74
2023/03/07 09:28:28;;;;;;;0.00;0.00;;;12.70;58.60;;;;;;4990279;28;20049;-74
2023/03/07 09:30:58;;;;;;;0.30;0.25;;;12.60;59.30;;;;;;5002435;28;20108;-75
2023/03/07 09:33:25;;;;;;;0.00;0.00;;;12.40;58.90;;;;;;4981900;28;20068;-75
2023/03/07 09:35:52;;;;;;;0.00;0.00;;;12.00;59.70;;;;;;4985116;28;20433;-75
2023/03/07 09:38:20;;;;;;;;;;;12.50;60.00;;;;;;5000389;28;20029;-74
2023/03/07 09:40:47;;;;;;;0.00;0.00;;;13.00;58.90;;;;;;4995660;28;19913;-75
2023/03/07 09:43:21;;;;;;;0.00;0.00;;;13.10;58.00;;;;;;5008080;28;20064;-74
2023/03/07 09:45:57;;;;;;;0.00;0.00;;;13.40;57.30;;;;;;4991222;28;20479;-74
2023/03/07 09:48:41;;;;;;;0.00;0.00;;;13.70;56.00;;;;;;5003736;28;20030;-74
2023/03/07 09:51:17;;;;;;;0.00;0.00;;;15.10;55.50;;;;;;5002192;28;20092;-74
2023/03/07 09:54:00;;;;;;;0.00;0.00;;;16.00;53.20;;;;;;4999281;28;20037;-75
2023/03/07 09:56:42;;;;;;;0.00;0.00;;;17.10;52.00;;;;;;5003900;28;20035;-74
2023/03/07 09:59:21;;;;;;;0.00;0.00;;;18.20;50.10;;;;;;5007936;28;20553;-73
2023/03/07 10:02:02;;;;;;;0.00;0.00;;;18.80;48.50;;;;;;5000367;28;20068;-75
2023/03/07 10:04:40;;;;;;;0.00;0.00;;;19.80;46.70;;;;;;5007577;28;20749;-75
2023/03/07 10:07:15;;;;;;;0.08;0.08;;;20.10;45.00;;;;;;5005022;28;20022;-75
2023/03/07 10:09:43;;;;;;;0.00;0.00;;;20.20;43.90;;;;;;4982530;28;20026;-75
2023/03/07 10:12:29;;;;;;;0.00;0.00;;;19.30;44.10;;;;;;4982734;28;20113;-74
2023/03/07 10:15:34;;;;;;;0.00;0.00;;;18.60;45.00;;;;;;4989985;28;20029;-74
2023/03/07 10:18:37;;;;;;;0.00;0.00;;;17.80;45.80;;;;;;4996544;28;20033;-74
2023/03/07 10:21:35;;;;;;;0.00;0.00;;;17.20;47.10;;;;;;4987902;28;20060;-74
2023/03/07 10:24:15;;;;;;;0.00;0.00;;;16.90;47.30;;;;;;4997644;28;20637;-74
2023/03/07 10:26:44;;;;;;;0.00;0.00;;;17.20;47.50;;;;;;4981082;28;20097;-75
2023/03/07 10:29:16;;;;;;;0.00;0.00;;;17.50;47.20;;;;;;5006637;28;20083;-75
2023/03/07 10:31:52;;;;;;;0.03;0.03;;;18.10;46.90;;;;;;4985611;28;20033;-76
2023/03/07 10:34:29;;;;;;;0.00;0.00;;;17.40;46.00;;;;;;5003984;28;20029;-75
2023/03/07 10:37:35;;;;;;;0.00;0.00;;;17.90;46.70;;;;;;5008913;28;20041;-75
2023/03/07 10:40:01;;;;;;;0.00;0.00;;;17.60;46.00;;;;;;4988303;28;20041;-71
2023/03/07 10:42:32;;;;;;;;;;;17.50;48.20;;;;;;5009990;28;20031;-71
2023/03/07 10:44:58;;;;;;;0.30;0.30;;;18.00;47.10;;;;;;5003040;28;19909;-71
2023/03/07 10:47:26;;;;;;;0.52;0.52;;;18.40;48.50;;;;;;5000827;28;20072;-71
2023/03/07 10:49:59;;;;;;;0.00;0.00;;;19.20;47.20;;;;;;5003634;28;20038;-71
2023/03/07 10:52:46;;;;;;;0.52;0.20;;;19.90;47.20;;;;;;5007227;28;20363;-71
2023/03/07 10:55:43;;;;;;;0.00;0.00;;;21.00;45.00;;;;;;5000753;28;20021;-72
2023/03/07 10:58:20;;;;;;;0.00;0.00;;;19.90;43.90;;;;;;4987776;28;20026;-74
2023/03/07 11:01:06;;;;;;;0.00;0.00;;;17.40;45.90;;;;;;4987585;28;20041;-74
2023/03/07 11:03:43;;;;;;;0.10;0.10;;;15.90;47.60;;;;;;4992851;28;20175;-75
2023/03/07 11:06:35;;;;;;;0.00;0.00;;;15.20;48.90;;;;;;4989596;28;20519;-75
2023/03/07 11:09:21;;;;;;;0.00;0.00;;;14.90;49.70;;;;;;5000218;28;20038;-74
2023/03/07 11:11:58;;;;;;;0.10;0.10;;;14.60;50.50;;;;;;5001466;28;20026;-74
2023/03/07 11:14:25;;;;;;;0.03;0.03;;;14.40;50.90;;;;;;5003984;28;20517;-74
2023/03/07 11:17:00;;;;;;;0.00;0.00;;;14.50;51.50;;;;;;5006931;28;20037;-74
2023/03/07 11:19:31;;;;;;;0.00;0.00;;;14.50;50.50;;;;;;5004602;28;20033;-74
2023/03/07 11:22:02;;;;;;;0.17;0.17;;;14.70;50.60;;;;;;4996857;28;20022;-74
2023/03/07 11:25:09;;;;;;;0.00;0.00;;;15.00;50.50;;;;;;5000682;28;20022;-74
2023/03/07 11:27:45;;;;;;;0.00;0.00;;;15.10;50.10;;;;;;4974893;28;20526;-74
2023/03/07 11:30:25;;;;;;;0.00;0.00;;;15.10;49.90;;;;;;5006041;28;20026;-75
2023/03/07 11:33:45;;;;;;;0.00;0.00;;;14.70;54.50;;;;;;5003518;28;20034;-74
2023/03/07 11:36:32;;;;;;;0.00;0.00;;;14.60;56.60;;;;;;4933599;29;20023;-75
2023/03/07 11:39:14;;;;;;;0.00;0.00;;;14.30;57.80;;;;;;5000347;28;20064;-73
2023/03/07 11:41:44;;;;;;;0.10;0.00;;;14.20;58.20;;;;;;5004344;28;20048;-78
2023/03/07 11:44:48;;;;;;;0.00;0.00;;;13.80;60.10;;;;;;4990379;28;20029;-79
2023/03/07 11:47:44;;;;;;;0.00;0.00;;;13.80;60.60;;;;;;4986301;28;20014;-78
2023/03/07 11:50:18;;;;;;;0.00;0.00;;;13.50;60.50;;;;;;4990366;28;20021;-74
2023/03/07 11:53:13;;;;;;;0.10;0.10;;;12.90;61.80;;;;;;5001402;28;20041;-74
2023/03/07 11:56:07;;;;;;;0.00;0.00;;;12.50;62.50;;;;;;5005744;28;20025;-74
2023/03/07 11:58:50;;;;;;;0.08;0.08;;;12.30;63.20;;;;;;4999379;28;20029;-73
2023/03/07 12:01:34;;;;;;;1.75;0.25;;;12.20;63.40;;;;;;5010492;28;20467;-74
2023/03/07 12:04:29;;;;;;;0.08;0.08;;;12.30;63.40;;;;;;5006069;28;20022;-74
2023/03/07 12:07:25;;;;;;;0.20;0.20;;;12.10;63.60;;;;;;4987530;28;20100;-74
2023/03/07 12:10:32;;;;;;;0.00;0.00;;;11.70;65.20;;;;;;5005849;28;20077;-74
2023/03/07 12:13:09;;;;;;;0.00;0.00;;;11.60;65.50;;;;;;4983629;28;20017;-74
2023/03/07 12:15:46;;;;;;;0.00;0.00;;;11.70;65.40;;;;;;4989246;28;20535;-74
2023/03/07 12:18:29;;;;;;;0.00;0.00;;;12.00;65.60;;;;;;5001789;28;20111;-74
2023/03/07 12:21:14;;;;;;;0.00;0.00;;;12.30;65.30;;;;;;4988854;28;20033;-74
2023/03/07 12:23:52;;;;;;;0.00;0.00;;;12.30;64.30;;;;;;4988270;28;20071;-74
2023/03/07 12:26:24;;;;;;;0.28;0.28;;;12.40;64.70;;;;;;4984556;28;20029;-74
2023/03/07 12:29:11;;;;;;;0.00;0.00;;;12.80;64.60;;;;;;4986602;28;20137;-74
2023/03/07 12:31:46;;;;;;;0.03;0.03;;;12.60;65.30;;;;;;5005032;28;20101;-74
2023/03/07 12:34:23;;;;;;;0.00;0.00;;;12.60;64.60;;;;;;5003902;28;20879;-74
2023/03/07 12:37:01;;;;;;;0.00;0.00;;;12.70;63.80;;;;;;4988192;28;20037;-74
2023/03/07 12:39:33;;;;;;;0.45;0.30;;;12.70;63.90;;;;;;4984398;28;20049;-74
2023/03/07 12:42:25;;;;;;;0.00;0.00;;;12.60;65.90;;;;;;5000682;28;20641;-74
2023/03/07 12:45:11;;;;;;;0.00;0.00;;;12.30;66.90;;;;;;5004053;28;20025;-74
2023/03/07 12:48:06;;;;;;;0.10;0.10;;;12.10;68.00;;;;;;5004296;28;20752;-74
2023/03/07 12:50:42;;;;;;;0.00;0.00;;;11.90;69.50;;;;;;5006513;28;20372;-75
2023/03/07 12:53:41;;;;;;;0.00;0.00;;;11.50;71.60;;;;;;5004359;28;20032;-74
2023/03/07 12:56:46;;;;;;;0.00;0.00;;;11.60;72.20;;;;;;4981843;28;20030;-74
2023/03/07 12:59:14;;;;;;;0.03;0.03;;;11.50;73.70;;;;;;5004449;28;20026;-74
2023/03/07 13:01:52;;;;;;;0.98;0.80;;;11.50;76.10;;;;;;5005704;28;20375;-74
2023/03/07 13:04:32;;;;;;;0.00;0.00;;;11.40;76.20;;;;;;4984758;28;20083;-74
2023/03/07 13:07:23;;;;;;;0.00;0.00;;;11.50;76.70;;;;;;5003485;28;20049;-73
2023/03/07 13:09:51;;;;;;;0.00;0.00;;;11.40;77.00;;;;;;4979675;28;20030;-73
2023/03/07 13:12:38;;;;;;;0.00;0.00;;;11.40;76.50;;;;;;4983019;28;20025;-74
2023/03/07 13:15:13;;;;;;;0.93;0.10;;;11.30;77.40;;;;;;5008382;28;20033;-74
2023/03/07 13:17:40;;;;;;;0.00;0.00;;;11.30;77.70;;;;;;4987967;28;20117;-75
2023/03/07 13:20:16;;;;;;;;;;;11.10;78.50;;;;;;4989707;28;20022;-73
2023/03/07 13:22:43;;;;;;;0.00;0.00;;;10.90;79.80;;;;;;4985861;28;19979;-74
2023/03/07 13:25:21;;;;;;;;;;;11.00;81.20;;;;;;5001352;28;20363;-75
2023/03/07 13:28:03;;;;;;;0.08;0.08;;;11.10;82.30;;;;;;4987584;28;19909;-74